Aeroporto :
LOGIN :

Iscrizione | Disclaimer

   EN    FR    IT 

 










Sommario :    VFR   VFR Marginale   IFR   IFR Intensivo   IFR Molto Intensivo
Visibilità : 
Base nubi : 
>= 8 km
>= 3000ft
5 / 8 km
1000 / 3000 ft
1500m / 5 km
500 / 1000 ft
800 / 1500m
200 / 500 ft
< 800m
< 200 ft
Simboli :   Temporali  Nebbia  Neve Forte  Precipitazioni Forti  Vento > 20 kt
SIGMETs :   Varie  Temporali  Ghiacco  Turbolenza  Onda orograficha  Ceneri Vulcaniche






- Altitudine del aeroporto : 778 ft
- Codice IATA : BRQ


LKTB - Brno-Turany

ULTIMO METAR :
  • 231500Z 23014KT CAVOK 13/06 Q1009 NOSIG

METARs OBSOLETI :
  • 231430Z 23013G23KT CAVOK 12/06 Q1010 NOSIG
  • 231400Z 22007KT 9999 -RA FEW039 11/06 Q1010 NOSIG
  • 231330Z 22009KT 190V250 9999 -RA BKN036 10/05 Q1011 NOSIG
  • 231300Z 21012KT 9999 -RA BKN037 10/05 Q1012 NOSIG
  • 231230Z 23013KT 9999 -RA OVC038 10/05 Q1014 NOSIG
  • 231200Z 23012KT 9999 -RA OVC038 10/05 Q1015 NOSIG

TAF TAF LKTB
Valido dal 23 a 12 ore il 24 a 18 ore UTC


231100Z 2312/2418 24014KT 9999 BKN035
BECMG 2316/2318 28022KT
TEMPO 2318/2321 29024G38KT
BECMG 2321/2322 32022KT
TEMPO 2322/2402 33026G44KT 5000 SHRA SCT022TCU
BECMG 2402/2405 31012KT CAVOK
BECMG 2415/2418 22007KT 9999 BKN040



MetMap, La meteo Aeronautica in un colpo d'occhio ! - Copyright ORBIFLY Dicembre 2007 - Disclaimer

ORBIFLY MET'MAP TEAM :

Programmazione e sviluppo : Alexandra Zaïnal
Concezione : Baudouin d'Aumeries
Aiuto per la programmazione : Marc-Olivier Méhu
Supporto tecnico e logistico : Manuel Goepfert
Aiuto per la traduzione : Arnaldo La Scala

Contatto : metmap@orbifly.com




FONTI E CREDITI :

   NOAA